Terminal Aerodrome Forecast
Issued by NWS Atlanta, GA

Home | Current Version | Previous Version | Text Only | Print | Product List | Glossary On
Versions: 1 2 3 4 5 6 7 8 9 10 11 12 13 14 15 16
000
FTUS42 KFFC 191354 AAB
TAFMCN
TAF AMD
KMCN 191354Z 1914/2012 26010KT P6SM BKN020
     FM191500 32015G25KT P6SM SCT030
     FM192100 32010G18KT P6SM FEW070
     FM200100 32008KT P6SM SKC
     FM200900 05006KT P6SM SKC=

USA.gov is the U.S. government's official web portal to all federal, state and local government web resources and services.